• Join FlightAware (Why Join?)
  • Login
  • US Flag 
10:03PM EDT


 

Airport Tracker/Info


-or-


 

Live Flight TrackerFlight Track Log ✈ UAL3744 ✈ 21-Apr-2013 ✈ KIAD - KDFW

Flight Track Log - Related Links

Times and Time Zones

All times are in EDT time to prevent confusion due to time zone crossing. See the UAL3744 flight status page for this flight to view local times or setup timezone preferences in your user account.

Time Position Orientation Groundspeed Altitude Reporting Facility
EDT Latitude Longitude Course Direction KTS MPH feet Rate Location/Type
08:38AM 38.9500 -77.5333 256° West 187 215 2,000  Level Potomac TRACON
08:39AM 38.9333 -77.6167 256° West 260 299 4,100 2,760 Climbing Potomac TRACON
08:40AM 38.9000 -77.7000 243° Southwest 244 281 7,300 2,820 Climbing Potomac TRACON
08:41AM 38.8833 -77.7833 256° West 254 292 9,600 1,740 Climbing Potomac TRACON
08:42AM 38.8769 -77.8794 265° West 269 310 11,000 1,680 Climbing Washington Center
08:43AM 38.8708 -77.9914 266° West 292 336 13,100 2,100 Climbing Washington Center
08:44AM 38.8622 -78.1056 265° West 312 359 15,200 1,980 Climbing Washington Center
08:45AM 38.8556 -78.2200 266° West 322 371 17,100 1,500 Climbing Washington Center
08:46AM 38.8528 -78.3372 268° West 327 376 18,200 1,380 Climbing Washington Center
08:47AM 38.8522 -78.4597 270° West 337 388 19,900 1,560 Climbing Washington Center
08:48AM 38.8511 -78.5825 269° West 343 395 21,400 1,560 Climbing Washington Center
08:49AM 38.8500 -78.7103 269° West 353 406 23,100 1,500 Climbing Washington Center
08:50AM 38.8489 -78.8356 269° West 353 406 24,500 1,260 Climbing Washington Center
08:51AM 38.8475 -78.9608 269° West 353 406 25,700 1,140 Climbing Washington Center
08:52AM 38.8439 -79.0858 268° West 353 406 26,800 1,020 Climbing Washington Center
08:53AM 38.8381 -79.2164 267° West 363 418 27,800 960 Climbing Washington Center
08:54AM 38.8175 -79.3406 258° West 363 418 28,800 900 Climbing Washington Center
08:55AM 38.7719 -79.4633 245° Southwest 375 432 29,600 840 Climbing Washington Center
08:56AM 38.7203 -79.5725 239° Southwest 375 432 30,600 900 Climbing Washington Center
08:57AM 38.6711 -79.6708 237° Southwest 370 426 31,500 900 Climbing Washington Center
08:58AM 38.6236 -79.7825 241° Southwest 370 426 32,400 780 Climbing Washington Center
08:59AM 38.5739 -79.8911 240° Southwest 370 426 33,100 600 Climbing Washington Center
09:00AM 38.5525 -80.0147 258° West 364 419 33,700 660 Climbing Washington Center
09:01AM 38.5350 -80.1544 261° West 364 419 34,500 600 Climbing Washington Center
09:02AM 38.5175 -80.2833 260° West 364 419 35,000 180 Climbing Washington Center
09:03AM 38.4875 -80.4222 255° West 370 426 35,000  Level Indianapolis Center
09:04AM 38.4567 -80.5681 255° West 382 440 35,000 300 Level Indianapolis Center
09:05AM 38.4297 -80.7025 256° West 388 447 35,700 480 Climbing Indianapolis Center
09:06AM 38.4019 -80.8339 255° West 384 442 36,000 120 Climbing Indianapolis Center
09:07AM 38.3739 -80.9675 255° West 387 445 36,000  Level Indianapolis Center
09:08AM 38.3458 -81.1006 255° West 386 444 36,000  Level Indianapolis Center
09:09AM 38.3175 -81.2314 255° West 381 438 36,000  Level Indianapolis Center
09:10AM 38.2897 -81.3664 255° West 388 447 36,000  Level Indianapolis Center
09:11AM 38.2600 -81.5014 254° West 393 452 36,000  Level Indianapolis Center
09:12AM 38.2297 -81.6369 254° West 394 453 36,000  Level Indianapolis Center
09:14AM 38.2019 -81.7711 255° West 391 450 36,000  Level Indianapolis Center
09:15AM 38.1669 -81.9306 254° West 388 447 36,000  Level Indianapolis Center
09:16AM 38.1375 -82.0636 254° West 391 450 36,000  Level Indianapolis Center
09:17AM 38.1094 -82.1967 255° West 389 448 36,000  Level Indianapolis Center
09:18AM 38.0822 -82.3164 254° West 386 444 36,000  Level Indianapolis Center
09:19AM 38.0467 -82.4733 254° West 395 455 36,000  Level Indianapolis Center
09:20AM 38.0167 -82.6075 254° West 396 456 36,000  Level Indianapolis Center
09:21AM 37.9864 -82.7411 254° West 395 455 36,000  Level Indianapolis Center
09:22AM 37.9561 -82.8764 254° West 398 458 36,000  Level Indianapolis Center
09:23AM 37.9250 -83.0072 253° West 391 450 36,000  Level Indianapolis Center
09:24AM 37.8947 -83.1394 254° West 392 451 36,000  Level Indianapolis Center
09:25AM 37.8644 -83.2717 254° West 391 450 36,000  Level Indianapolis Center
09:26AM 37.8283 -83.4256 253° West 391 450 36,000  Level Indianapolis Center
09:27AM 37.7969 -83.5572 253° West 393 452 36,000  Level Indianapolis Center
09:28AM 37.7653 -83.6922 254° West 399 459 36,000  Level Indianapolis Center
09:29AM 37.7333 -83.8256 253° West 399 459 36,000  Level Indianapolis Center
09:30AM 37.7006 -83.9586 253° West 398 458 36,000  Level Indianapolis Center
09:31AM 37.6686 -84.0931 253° West 400 460 36,000  Level Indianapolis Center
09:32AM 37.6328 -84.2264 251° West 401 461 36,000  Level Indianapolis Center
09:33AM 37.5844 -84.3808 248° West 403 464 36,000  Level Indianapolis Center
09:34AM 37.5444 -84.5103 249° West 398 458 36,000  Level Indianapolis Center
09:35AM 37.5047 -84.6397 249° West 398 458 36,000  Level Indianapolis Center
09:36AM 37.4650 -84.7675 249° West 394 453 36,000  Level Indianapolis Center
09:37AM 37.4253 -84.8964 249° West 395 455 36,000  Level Indianapolis Center
09:38AM 37.3839 -85.0278 248° West 402 463 36,000  Level Indianapolis Center
09:39AM 37.3431 -85.1569 248° West 398 458 36,000  Level Indianapolis Center
09:40AM 37.2947 -85.3092 248° West 401 461 36,000  Level Indianapolis Center
09:41AM 37.2528 -85.4394 248° West 401 461 36,000  Level Indianapolis Center
09:42AM 37.2167 -85.5533 248° West 401 461 36,000  Level Indianapolis Center
09:43AM 37.1678 -85.7106 249° West 401 461 36,000  Level Memphis Center
09:44AM 37.1244 -85.8381 247° West 406 467 36,000  Level Memphis Center
09:45AM 37.0833 -85.9703 249° West 406 467 36,000  Level Memphis Center
09:46AM 37.0403 -86.1025 248° West 406 467 36,000  Level Memphis Center
09:47AM 36.9858 -86.2250 241° Southwest 406 467 36,000  Level Memphis Center
09:48AM 36.9139 -86.3142 225° Southwest 406 467 36,000  Level Memphis Center
09:49AM 36.8336 -86.4117 224° Southwest 407 468 36,000 120 Level Memphis Center
09:50AM 36.7533 -86.5114 225° Southwest 407 468 36,300 600 Climbing Memphis Center
09:51AM 36.7008 -86.6303 241° Southwest 380 437 37,200 780 Climbing Memphis Center
09:52AM 36.6586 -86.7539 247° West 385 443 37,900 360 Climbing Memphis Center
09:53AM 36.6164 -86.8772 247° West 390 449 38,000  Climbing Memphis Center
09:54AM 36.5761 -87.0056 249° West 390 449 38,000  Level Memphis Center
09:55AM 36.5336 -87.1339 248° West 395 455 38,000  Level Memphis Center
09:56AM 36.4889 -87.2622 247° West 400 460 38,000  Level Memphis Center
09:57AM 36.4419 -87.3931 246° West 400 460 38,000  Level Memphis Center
09:58AM 36.3992 -87.5233 248° West 405 466 38,000  Level Memphis Center
09:59AM 36.3522 -87.6539 246° West 410 472 38,000  Level Memphis Center
10:00AM 36.3011 -87.7997 247° West 415 478 38,000  Level Memphis Center
10:01AM 36.2578 -87.9300 248° West 421 484 38,000  Level Memphis Center
10:02AM 36.2081 -88.0625 245° Southwest 421 484 38,000  Level Memphis Center
10:03AM 36.1667 -88.1897 248° West 408 470 38,000  Level Memphis Center
10:04AM 36.1211 -88.3219 247° West 408 470 38,000  Level Memphis Center
10:05AM 36.0731 -88.4542 246° West 414 476 38,000  Level Memphis Center
10:06AM 36.0250 -88.5836 245° Southwest 414 476 38,000  Level Memphis Center
10:07AM 35.9789 -88.7153 247° West 419 482 38,000  Level Memphis Center
10:08AM 35.9303 -88.8472 246° West 419 482 38,000  Level Memphis Center
10:09AM 35.8900 -88.9631 247° West 419 482 38,000  Level Memphis Center
10:10AM 35.8394 -89.0972 245° Southwest 419 482 38,000  Level Memphis Center
10:11AM 35.7928 -89.2283 246° West 419 482 38,000  Level Memphis Center
10:12AM 35.7439 -89.3619 246° West 419 482 38,000  Level Memphis Center
10:13AM 35.6969 -89.4956 247° West 419 482 38,000  Level Memphis Center
10:14AM 35.6539 -89.6264 248° West 419 482 38,000  Level Memphis Center
10:15AM 35.6067 -89.7594 246° West 419 482 38,000  Level Memphis Center
10:16AM 35.5550 -89.8925 245° Southwest 425 489 38,000  Level Memphis Center
10:17AM 35.5075 -90.0281 247° West 430 495 38,000  Level Memphis Center
10:18AM 35.4536 -90.1736 246° West 430 495 38,000  Level Memphis Center
10:19AM 35.4036 -90.3036 245° Southwest 425 489 38,000  Level Memphis Center
10:20AM 35.3558 -90.4333 246° West 420 483 38,000  Level Memphis Center
10:21AM 35.3033 -90.5683 245° Southwest 420 483 38,000  Level Memphis Center
10:22AM 35.2531 -90.7028 245° Southwest 425 489 38,000  Level Memphis Center
10:23AM 35.2047 -90.8322 245° Southwest 420 483 38,000  Level Memphis Center
10:24AM 35.1539 -90.9642 245° Southwest 426 490 38,000  Level Memphis Center
10:25AM 35.1033 -91.0958 245° Southwest 424 488 38,000  Level Memphis Center
10:26AM 35.0544 -91.2222 245° Southwest 424 488 38,000  Level Memphis Center
10:27AM 35.0056 -91.3533 246° West 424 488 38,000  Level Memphis Center
10:28AM 34.9522 -91.4794 243° Southwest 418 481 38,000  Level Memphis Center
10:29AM 34.9031 -91.6106 245° Southwest 423 487 38,000  Level Memphis Center
10:30AM 34.8475 -91.7411 243° Southwest 428 493 38,000  Level Memphis Center
10:31AM 34.7981 -91.8719 245° Southwest 428 493 38,000  Level Memphis Center
10:32AM 34.7547 -91.9875 245° Southwest 423 487 38,000  Level Memphis Center
10:33AM 34.7008 -92.1178 243° Southwest 423 487 38,000  Level Memphis Center
10:34AM 34.6572 -92.2533 249° West 423 487 38,000  Level Memphis Center
10:35AM 34.6236 -92.3861 253° West 423 487 38,000  Level Memphis Center
10:36AM 34.5858 -92.5242 252° West 423 487 38,000  Level Memphis Center
10:37AM 34.5503 -92.6569 252° West 423 487 38,000  Level Memphis Center
10:38AM 34.5142 -92.7944 252° West 423 487 38,000  Level Memphis Center
10:39AM 34.4758 -92.9344 252° West 423 487 38,000  Level Memphis Center
10:40AM 34.4397 -93.0669 252° West 423 487 38,000  Level Memphis Center
10:41AM 34.4033 -93.2017 252° West 423 487 38,000  Level Memphis Center
10:42AM 34.3667 -93.3389 252° West 423 487 38,000  Level Memphis Center
10:43AM 34.3272 -93.4956 253° West 407 468 38,000  Level Fort Worth Center
10:44AM 34.2917 -93.6306 252° West 417 480 38,000  Level Fort Worth Center
10:45AM 34.2539 -93.7678 252° West 422 486 38,000  Level Fort Worth Center
10:46AM 34.2161 -93.9025 251° West 427 491 38,000  Level Fort Worth Center
10:47AM 34.1758 -94.0322 249° West 427 491 38,000 -300 Level Fort Worth Center
10:48AM 34.1314 -94.1617 248° West 427 491 37,400 -1,020 Descending Fort Worth Center
10:49AM 34.0967 -94.2758 250° West 401 461 36,000 -1,740 Descending Fort Worth Center
10:50AM 34.0597 -94.3900 249° West 382 440 34,000 -2,040 Descending Fort Worth Center
10:51AM 34.0208 -94.5117 249° West 377 434 32,000 -2,040 Descending Fort Worth Center
10:52AM 33.9800 -94.6383 249° West 388 447 30,000 -2,040 Descending Fort Worth Center
10:53AM 33.9367 -94.7622 247° West 399 459 28,000 -2,040 Descending Fort Worth Center
10:54AM 33.8933 -94.8914 248° West 409 471 26,000 -1,980 Descending Fort Worth Center
10:55AM 33.8522 -95.0200 249° West 414 476 24,100 -1,020 Descending Fort Worth Center
10:56AM 33.8086 -95.1461 247° West 414 476 24,000 -60 Descending Fort Worth Center
10:57AM 33.7669 -95.2722 248° West 414 476 24,000  Level Fort Worth Center
10:58AM 33.7231 -95.3956 247° West 414 476 24,000  Level Fort Worth Center
10:59AM 33.6833 -95.5189 249° West 409 471 24,000 -300 Level Fort Worth Center
11:00AM 33.6475 -95.6419 251° West 403 464 23,500 -1,320 Descending Fort Worth Center
11:01AM 33.6033 -95.7600 246° West 390 449 21,400 -2,160 Descending Fort Worth Center
11:02AM 33.5650 -95.8778 249° West 390 449 19,200 -2,100 Descending Fort Worth Center
11:03AM 33.5267 -95.9906 248° West 379 436 17,200 -2,100 Descending Fort Worth Center
11:04AM 33.4903 -96.1008 248° West 345 397 15,100 -1,920 Descending Fort Worth Center
11:05AM 33.4600 -96.1883 247° West 327 376 13,400 -1,680 Descending Fort Worth Center
11:06AM 33.4192 -96.2961 246° West 321 369 11,800 -1,200 Descending Fort Worth Center
11:07AM 33.3675 -96.3689 230° Southwest 321 369 11,000 -900 Descending Fort Worth Center
11:08AM 33.3328 -96.4661 247° West 301 346 10,100 -1,200 Descending Fort Worth Center
11:09AM 33.3064 -96.5433 248° West 288 331 8,700 -1,500 Descending Fort Worth Center
11:10AM 33.2778 -96.6283 248° West 281 323 7,200 -1,560 Descending Fort Worth Center
11:11AM 33.2447 -96.7206 247° West 276 318 5,600 -1,140 Descending Fort Worth Center
11:12AM 33.2222 -96.7925 250° West 266 306 5,000 -600 Descending Fort Worth Center
11:13AM 33.1994 -96.8647 249° West 245 282 4,500 -540 Descending Fort Worth Center
11:14AM 33.1747 -96.9319 246° West 234 269 4,000 -600 Descending Fort Worth Center
11:15AM 33.1519 -96.9867 244° Southwest 198 228 3,400 -540 Descending Fort Worth Center
11:16AM 33.1083 -97.0192 212° Southwest 178 205 3,000 -300 Descending Fort Worth Center
11:17AM 33.0833 -97.0333 205° Southwest 158 182 3,000  Level Dallas / Fort Worth TRACON
11:18AM 33.0500 -97.0333 180° South 153 176 3,000 -360 Level Dallas / Fort Worth TRACON
11:19AM 33.0000 -97.0333 180° South 156 180 2,400 -780 Descending Dallas / Fort Worth TRACON
11:20AM 32.9667 -97.0333 180° South 129 148 1,700 -780 Descending Dallas / Fort Worth TRACON
11:21AM 32.9333 -97.0333 180° South 127 146 1,000 -720 Descending Dallas / Fort Worth TRACON
11:23AM 32.8968 -97.0380 180° South  Level Estimated
11:30AM 32.8968 -97.0380 180° South  Level Estimated